createdAt,value
2019-05-03T00:01:08.516Z,9.50
2019-05-03T00:03:38.160Z,10.50
2019-05-03T00:06:07.935Z,9.83
2019-05-03T00:08:37.377Z,9.57
2019-05-03T00:11:06.935Z,8.90
2019-05-03T00:13:36.565Z,8.43
2019-05-03T00:16:16.606Z,8.43
2019-05-03T00:18:47.646Z,8.63
2019-05-03T00:21:17.138Z,7.43
2019-05-03T00:23:46.610Z,7.70
2019-05-03T00:26:16.102Z,7.83
2019-05-03T00:28:45.771Z,6.90
2019-05-03T00:31:15.360Z,6.77
2019-05-03T00:33:46.479Z,7.50
2019-05-03T00:36:17.585Z,7.47
2019-05-03T00:38:47.147Z,7.17
2019-05-03T00:41:16.718Z,6.97
2019-05-03T00:43:46.198Z,6.40
2019-05-03T00:46:15.637Z,7.17
2019-05-03T00:48:45.129Z,6.93
2019-05-03T00:51:14.609Z,6.37
2019-05-03T00:53:44.090Z,7.30
2019-05-03T00:56:13.587Z,6.97
2019-05-03T00:58:56.792Z,6.97
2019-05-03T01:01:26.222Z,8.03
2019-05-03T01:03:55.710Z,7.70
2019-05-03T01:06:25.194Z,8.67
2019-05-03T01:08:54.768Z,7.67
2019-05-03T01:11:24.328Z,7.70
2019-05-03T01:13:53.844Z,8.67
2019-05-03T01:16:25.163Z,8.13
2019-05-03T01:18:54.641Z,7.63
2019-05-03T01:21:24.065Z,7.37
2019-05-03T01:23:53.614Z,8.10
2019-05-03T01:26:23.205Z,8.73
2019-05-03T01:28:55.832Z,8.50
2019-05-03T01:31:25.420Z,8.30
2019-05-03T01:33:54.974Z,9.60
2019-05-03T01:36:24.557Z,10.37
2019-05-03T01:38:55.339Z,10.33
2019-05-03T01:41:24.907Z,9.57
2019-05-03T01:43:54.467Z,7.93
2019-05-03T01:46:23.978Z,7.70
2019-05-03T01:48:56.292Z,8.10
2019-05-03T01:51:27.385Z,8.77
2019-05-03T01:53:56.797Z,9.70
2019-05-03T01:56:26.221Z,8.23
2019-05-03T01:58:55.807Z,9.50
2019-05-03T02:01:36.090Z,9.03
2019-05-03T02:04:07.311Z,9.93
2019-05-03T02:06:36.868Z,8.53
2019-05-03T02:09:08.755Z,8.83
2019-05-03T02:11:38.242Z,9.20
2019-05-03T02:14:07.791Z,8.83
2019-05-03T02:16:37.286Z,10.07
2019-05-03T02:19:06.834Z,9.70
2019-05-03T02:21:36.264Z,10.23
2019-05-03T02:24:05.853Z,11.13
2019-05-03T02:26:35.359Z,11.37
2019-05-03T02:29:04.930Z,12.80
2019-05-03T02:31:34.360Z,12.73
2019-05-03T02:34:03.942Z,12.60
2019-05-03T02:36:33.944Z,12.97
2019-05-03T02:39:09.976Z,13.57
2019-05-03T02:41:39.954Z,12.77
2019-05-03T02:44:09.620Z,13.13
2019-05-03T02:46:56.591Z,13.20
2019-05-03T02:49:39.636Z,12.20
2019-05-03T02:52:10.787Z,11.43
2019-05-03T02:54:40.364Z,12.63
2019-05-03T02:57:09.791Z,10.90
2019-05-03T02:59:39.235Z,12.50
2019-05-03T03:02:08.805Z,12.07
2019-05-03T03:04:38.449Z,12.57
2019-05-03T03:07:08.674Z,11.77
2019-05-03T03:09:38.233Z,12.37
2019-05-03T03:12:09.250Z,13.27
2019-05-03T03:14:40.274Z,12.80
2019-05-03T03:17:12.053Z,13.10
2019-05-03T03:19:45.988Z,13.33
2019-05-03T03:22:16.943Z,14.43
2019-05-03T03:24:49.400Z,13.23
2019-05-03T03:27:21.912Z,12.37
2019-05-03T03:29:55.275Z,12.57
2019-05-03T03:32:29.609Z,12.10
2019-05-03T03:35:20.192Z,12.63
2019-05-03T03:37:46.354Z,12.77
2019-05-03T03:40:18.051Z,13.53
2019-05-03T03:42:51.010Z,14.37
2019-05-03T03:45:20.502Z,14.63
2019-05-03T03:47:56.339Z,12.63
2019-05-03T03:50:26.186Z,12.30
2019-05-03T03:52:59.105Z,11.87
2019-05-03T03:55:31.884Z,14.80
2019-05-03T03:58:02.058Z,14.50
2019-05-03T04:00:31.921Z,13.63
2019-05-03T04:03:05.908Z,13.10
2019-05-03T04:05:35.801Z,13.40
2019-05-03T04:08:05.951Z,13.10
2019-05-03T04:10:35.579Z,14.40
2019-05-03T04:13:07.509Z,14.00
2019-05-03T04:15:45.355Z,14.37
2019-05-03T04:18:29.140Z,13.90
2019-05-03T04:20:58.959Z,15.23
2019-05-03T04:26:08.459Z,13.60
2019-05-03T04:29:05.348Z,14.13
2019-05-03T04:31:36.828Z,14.03
2019-05-03T04:34:06.777Z,14.23
2019-05-03T04:36:46.187Z,14.73
2019-05-03T04:39:19.999Z,15.37
2019-05-03T04:41:47.781Z,17.77
2019-05-03T04:44:18.917Z,19.57
2019-05-03T04:46:48.561Z,13.60
2019-05-03T04:49:18.100Z,13.73
2019-05-03T04:51:52.038Z,14.23
2019-05-03T04:54:25.429Z,15.47
2019-05-03T04:56:56.223Z,15.90
2019-05-03T04:59:25.847Z,14.87
2019-05-03T05:02:06.080Z,16.27
2019-05-03T05:04:35.762Z,14.13
2019-05-03T05:07:06.357Z,13.83
2019-05-03T05:12:39.105Z,16.07
2019-05-03T05:15:08.744Z,15.00
2019-05-03T05:17:40.043Z,14.47
2019-05-03T05:20:11.441Z,16.43
2019-05-03T05:22:57.672Z,14.97
2019-05-03T05:25:31.909Z,14.73
2019-05-03T05:31:08.673Z,13.60
2019-05-03T05:35:44.305Z,14.07
2019-05-03T05:36:39.523Z,13.53
2019-05-03T05:39:32.386Z,12.87
2019-05-03T05:41:55.465Z,11.77
2019-05-03T05:44:31.680Z,12.20
2019-05-03T05:47:44.756Z,10.90
2019-05-03T05:49:57.181Z,12.03
2019-05-03T05:52:26.862Z,12.73
2019-05-03T05:58:25.679Z,15.67
2019-05-03T06:01:17.746Z,15.80
2019-05-03T06:03:56.132Z,15.57
2019-05-03T06:06:30.514Z,14.57
2019-05-03T06:09:16.814Z,16.00
2019-05-03T06:11:55.432Z,14.63
2019-05-03T06:14:29.706Z,14.77
2019-05-03T06:17:05.353Z,15.23
2019-05-03T06:19:44.781Z,14.67
2019-05-03T06:22:26.104Z,14.47
2019-05-03T06:25:16.579Z,14.93
2019-05-03T06:27:46.740Z,14.27
2019-05-03T06:30:18.808Z,14.50
2019-05-03T06:32:57.012Z,14.43
2019-05-03T06:35:34.536Z,15.23
2019-05-03T06:41:19.420Z,14.40
2019-05-03T06:43:50.518Z,15.10
2019-05-03T06:46:30.099Z,15.00
2019-05-03T06:49:06.630Z,14.20
2019-05-03T06:51:31.742Z,14.57
2019-05-03T06:57:00.098Z,16.10
2019-05-03T06:59:45.135Z,15.40
2019-05-03T07:02:21.155Z,15.00
2019-05-03T07:04:59.420Z,15.03
2019-05-03T07:09:27.682Z,15.70
2019-05-03T07:12:04.479Z,15.83
2019-05-03T07:14:34.930Z,16.30
2019-05-03T07:17:05.666Z,16.90
2019-05-03T07:19:45.916Z,14.70
2019-05-03T07:22:17.979Z,14.63
2019-05-03T07:24:50.661Z,15.57
2019-05-03T07:27:21.416Z,13.60
2019-05-03T10:59:01.481Z,2.50
2019-05-03T11:04:54.898Z,2.70
2019-05-03T11:07:16.457Z,2.90
2019-05-03T11:09:49.769Z,2.77
2019-05-03T11:12:17.414Z,2.73
2019-05-03T11:14:48.221Z,2.77
2019-05-03T11:17:25.644Z,2.57
2019-05-03T11:19:55.422Z,2.40
2019-05-03T11:22:25.359Z,2.43
2019-05-03T11:28:19.451Z,2.37
2019-05-03T11:30:56.397Z,2.30
2019-05-03T11:33:36.991Z,2.50
2019-05-03T11:36:25.295Z,2.80
2019-05-03T11:38:55.860Z,2.90
2019-05-03T11:41:32.527Z,2.97
2019-05-03T11:44:00.232Z,3.93
2019-05-03T11:49:31.336Z,3.20
2019-05-03T11:52:02.439Z,2.50
2019-05-03T11:54:32.272Z,2.70
2019-05-03T11:57:05.062Z,2.83
2019-05-03T11:59:34.909Z,2.90
2019-05-03T12:02:29.012Z,3.20
2019-05-03T12:05:05.000Z,2.77
2019-05-03T12:07:39.509Z,2.83
2019-05-03T12:10:16.884Z,2.73
2019-05-03T12:12:55.359Z,2.80
2019-05-03T12:15:28.535Z,2.97
2019-05-03T12:18:06.011Z,2.53
2019-05-03T12:20:37.454Z,2.60
2019-05-03T12:23:08.113Z,2.70
2019-05-03T12:25:48.247Z,2.70
2019-05-03T12:31:40.239Z,2.97
2019-05-03T12:34:07.213Z,2.87
2019-05-03T12:36:39.170Z,2.70
2019-05-03T12:39:23.235Z,2.33
2019-05-03T12:41:39.693Z,2.63
2019-05-03T12:44:12.597Z,2.47
2019-05-03T12:47:02.472Z,2.63
2019-05-03T12:49:18.424Z,2.90
2019-05-03T12:51:49.461Z,3.10
2019-05-03T12:54:19.216Z,2.57
2019-05-03T12:57:16.734Z,2.37
2019-05-03T12:59:32.334Z,2.33
2019-05-03T13:02:08.858Z,2.57
2019-05-03T13:04:44.854Z,2.30
2019-05-03T13:07:18.878Z,2.33
2019-05-03T13:09:48.582Z,2.37
2019-05-03T13:12:21.423Z,2.57
2019-05-03T13:14:51.005Z,2.67
2019-05-03T13:17:38.060Z,2.50
2019-05-03T13:20:15.695Z,3.03
2019-05-03T13:22:45.979Z,2.63
2019-05-03T13:25:17.518Z,3.10
2019-05-03T13:28:00.580Z,2.73
2019-05-03T13:33:27.507Z,3.60
2019-05-03T13:35:58.185Z,2.57
2019-05-03T13:38:27.748Z,2.80
2019-05-03T13:40:57.955Z,3.37
2019-05-03T13:43:29.799Z,2.90
2019-05-03T13:45:59.451Z,2.57
2019-05-03T13:48:41.558Z,2.53
2019-05-03T13:51:01.538Z,2.90
2019-05-03T13:53:31.217Z,2.63
2019-05-03T13:56:00.713Z,2.73
2019-05-03T13:58:35.568Z,2.77
2019-05-03T14:01:05.567Z,2.50
2019-05-03T14:03:35.977Z,2.20
2019-05-03T14:06:08.767Z,2.33
2019-05-03T14:08:36.954Z,2.43
2019-05-03T14:11:06.514Z,2.20
2019-05-03T14:13:36.217Z,2.27
2019-05-03T14:16:06.474Z,2.63
2019-05-03T14:18:36.100Z,2.40
2019-05-03T14:21:15.107Z,2.30
2019-05-03T14:24:02.439Z,2.80
2019-05-03T14:26:32.039Z,2.83
2019-05-03T14:29:01.601Z,2.23
2019-05-03T14:31:31.274Z,2.43
2019-05-03T14:34:00.773Z,2.67
2019-05-03T14:36:31.406Z,2.50
2019-05-03T14:39:01.037Z,2.57
2019-05-03T14:41:32.224Z,2.40
2019-05-03T14:44:01.865Z,3.60
2019-05-03T14:46:33.292Z,2.43
2019-05-03T14:49:02.866Z,2.50
2019-05-03T14:51:32.405Z,2.93
2019-05-03T14:54:02.347Z,3.07
2019-05-03T14:56:34.791Z,2.43
2019-05-03T14:59:22.693Z,2.60
2019-05-03T15:01:55.195Z,2.50
2019-05-03T15:04:25.592Z,2.40
2019-05-03T15:06:57.755Z,2.20
2019-05-03T15:09:26.674Z,2.93
2019-05-03T15:11:56.197Z,3.03
2019-05-03T15:14:25.683Z,2.77
2019-05-03T15:16:55.776Z,2.90
2019-05-03T15:19:25.498Z,2.70
2019-05-03T15:21:55.143Z,2.60
2019-05-03T15:24:25.195Z,2.70
2019-05-03T15:26:55.396Z,2.93
2019-05-03T15:29:24.960Z,3.07
2019-05-03T15:31:55.334Z,3.57
2019-05-03T15:34:25.970Z,3.47
2019-05-03T15:36:55.527Z,3.10
2019-05-03T15:39:25.015Z,2.87
2019-05-03T15:41:54.650Z,3.10
2019-05-03T15:44:28.494Z,3.40
2019-05-03T15:47:02.454Z,4.13
2019-05-03T15:49:31.997Z,3.30
2019-05-03T15:52:01.689Z,3.70
2019-05-03T15:54:35.008Z,3.83
2019-05-03T15:57:02.673Z,3.30
2019-05-03T15:59:32.252Z,3.27
2019-05-03T16:02:01.821Z,3.80
2019-05-03T16:04:31.471Z,3.53
2019-05-03T16:07:01.195Z,5.13
2019-05-03T16:09:30.744Z,4.03
2019-05-03T16:12:00.236Z,4.97
2019-05-03T16:14:30.996Z,4.03
2019-05-03T16:17:00.638Z,5.03
2019-05-03T16:19:33.084Z,4.33
2019-05-03T16:22:02.588Z,5.37
2019-05-03T16:24:32.212Z,4.57
2019-05-03T16:27:04.989Z,4.60
2019-05-03T16:29:34.954Z,5.20
2019-05-03T16:32:05.215Z,5.90
2019-05-03T16:34:36.107Z,5.50
2019-05-03T16:37:05.771Z,5.17
2019-05-03T16:39:35.528Z,13.80
2019-05-03T16:42:07.033Z,11.70
2019-05-03T16:44:36.604Z,6.17
2019-05-03T16:47:07.212Z,5.10
2019-05-03T16:49:36.981Z,5.00
2019-05-03T16:52:06.614Z,5.20
2019-05-03T16:54:36.130Z,4.80
2019-05-03T16:57:05.933Z,5.20
2019-05-03T16:59:35.413Z,5.40
2019-05-03T17:02:05.786Z,5.40
2019-05-03T17:04:45.067Z,5.03
2019-05-03T17:07:32.065Z,5.20
2019-05-03T17:10:04.919Z,5.00
2019-05-03T17:12:36.117Z,4.23
2019-05-03T17:15:07.905Z,4.33
2019-05-03T17:17:37.683Z,4.87
2019-05-03T17:20:07.712Z,5.53
2019-05-03T17:22:37.277Z,5.17
2019-05-03T17:25:07.020Z,4.73
2019-05-03T17:27:36.928Z,4.77
2019-05-03T17:30:10.409Z,4.77
2019-05-03T17:32:39.953Z,5.67
2019-05-03T17:35:09.752Z,4.50
2019-05-03T17:37:39.598Z,4.13
2019-05-03T17:40:14.860Z,5.43
2019-05-03T17:43:02.354Z,4.53
2019-05-03T17:45:35.116Z,3.63
2019-05-03T17:48:05.130Z,4.27
2019-05-03T17:50:35.302Z,3.93
2019-05-03T17:53:09.405Z,4.07
2019-05-03T17:55:40.665Z,3.70
2019-05-03T17:58:16.096Z,3.50
2019-05-03T18:01:02.328Z,3.50
2019-05-03T18:03:33.674Z,2.87
2019-05-03T18:06:14.935Z,3.90
2019-05-03T18:08:46.236Z,3.03
2019-05-03T18:11:17.437Z,3.13
2019-05-03T18:13:46.964Z,2.87
2019-05-03T18:16:16.528Z,3.40
2019-05-03T18:18:46.032Z,3.90
2019-05-03T18:21:15.678Z,4.00
2019-05-03T18:23:45.590Z,4.27
2019-05-03T18:26:16.443Z,2.90
2019-05-03T18:28:45.929Z,3.30
2019-05-03T18:31:15.436Z,3.23
2019-05-03T18:33:46.575Z,3.47
2019-05-03T18:36:16.360Z,3.60
2019-05-03T18:38:46.023Z,4.50
2019-05-03T18:41:17.282Z,3.97
2019-05-03T18:44:05.197Z,4.53
2019-05-03T18:46:54.945Z,3.70
2019-05-03T18:49:24.854Z,4.23
2019-05-03T18:51:55.332Z,3.50
2019-05-03T18:54:25.388Z,4.73
2019-05-03T18:56:55.751Z,4.30
2019-05-03T18:59:27.040Z,3.60
2019-05-03T19:01:56.797Z,4.17
2019-05-03T19:04:34.710Z,6.00
2019-05-03T19:07:06.668Z,5.57
2019-05-03T19:09:40.788Z,4.27
2019-05-03T19:12:15.389Z,5.17
2019-05-03T19:14:45.476Z,4.20
2019-05-03T19:17:24.746Z,4.03
2019-05-03T19:20:00.871Z,4.47
2019-05-03T19:22:31.000Z,4.07
2019-05-03T19:25:00.693Z,4.37
2019-05-03T19:27:30.184Z,4.20
2019-05-03T19:29:59.914Z,3.87
2019-05-03T19:32:29.395Z,3.50
2019-05-03T19:34:58.935Z,4.20
2019-05-03T19:37:28.482Z,4.17
2019-05-03T19:39:58.702Z,3.53
2019-05-03T19:42:28.213Z,4.23
2019-05-03T19:44:57.689Z,3.77
2019-05-03T19:47:27.341Z,3.97
2019-05-03T19:49:56.835Z,3.00
2019-05-03T19:52:34.322Z,3.67
2019-05-03T19:55:06.895Z,3.40
2019-05-03T19:57:38.109Z,3.50
2019-05-03T20:00:09.317Z,3.70
2019-05-03T20:02:40.717Z,3.47
2019-05-03T20:05:30.395Z,3.43
2019-05-03T20:08:17.595Z,3.97
2019-05-03T20:10:47.501Z,4.07
2019-05-03T20:13:17.165Z,3.93
2019-05-03T20:15:46.721Z,3.23
2019-05-03T20:18:18.061Z,3.70
2019-05-03T20:20:47.410Z,4.27
2019-05-03T20:23:16.834Z,3.80
2019-05-03T20:25:46.329Z,4.30
2019-05-03T20:28:15.955Z,4.00
2019-05-03T20:30:45.448Z,4.53
2019-05-03T20:33:14.913Z,4.93
2019-05-03T20:35:45.165Z,3.90
2019-05-03T20:38:15.330Z,4.30
2019-05-03T20:40:45.111Z,3.80
2019-05-03T20:43:32.735Z,3.87
2019-05-03T20:46:22.290Z,3.97
2019-05-03T20:48:53.522Z,4.57
2019-05-03T20:51:25.056Z,4.10
2019-05-03T20:53:55.363Z,4.13
2019-05-03T20:56:24.935Z,3.90
2019-05-03T20:58:54.970Z,3.90
2019-05-03T21:01:25.674Z,3.77
2019-05-03T21:03:55.238Z,4.70
2019-05-03T21:06:35.195Z,4.10
2019-05-03T21:08:56.568Z,4.17
2019-05-03T21:11:26.329Z,4.33
2019-05-03T21:13:55.856Z,4.50
2019-05-03T21:16:26.997Z,4.83
2019-05-03T21:19:00.881Z,4.77
2019-05-03T21:21:37.924Z,4.60
2019-05-03T21:24:09.164Z,4.87
2019-05-03T21:26:38.716Z,4.60
2019-05-03T21:29:08.275Z,4.00
2019-05-03T21:31:37.796Z,3.47
2019-05-03T21:34:07.210Z,3.80
2019-05-03T21:36:36.635Z,4.20
2019-05-03T21:39:07.568Z,4.10
2019-05-03T21:41:38.125Z,4.40
2019-05-03T21:44:07.774Z,3.80
2019-05-03T21:46:38.897Z,3.53
2019-05-03T21:49:10.060Z,4.27
2019-05-03T21:51:39.478Z,3.73
2019-05-03T21:54:09.243Z,4.00
2019-05-03T21:56:38.745Z,4.07
2019-05-03T21:59:08.204Z,3.53
2019-05-03T22:01:39.408Z,3.37
2019-05-03T22:04:08.976Z,4.07
2019-05-03T22:06:38.648Z,3.60
2019-05-03T22:09:08.207Z,3.10
2019-05-03T22:11:39.344Z,4.13
2019-05-03T22:14:10.474Z,4.10
2019-05-03T22:16:50.691Z,4.27
2019-05-03T22:19:20.147Z,4.40
2019-05-03T22:21:51.243Z,4.17
2019-05-03T22:24:22.347Z,3.70
2019-05-03T22:26:53.585Z,4.23
2019-05-03T22:29:25.252Z,3.83
2019-05-03T22:31:54.840Z,3.80
2019-05-03T22:34:25.740Z,3.70
2019-05-03T22:36:55.929Z,4.23
2019-05-03T22:39:25.429Z,3.90
2019-05-03T22:41:54.976Z,3.47
2019-05-03T22:44:25.330Z,3.70
2019-05-03T22:46:55.299Z,3.83
2019-05-03T22:49:25.988Z,3.80
2019-05-03T22:51:55.741Z,4.63
2019-05-03T22:54:25.330Z,4.30
2019-05-03T22:56:55.600Z,4.40
2019-05-03T22:59:25.562Z,3.63
2019-05-03T23:01:55.077Z,3.80
2019-05-03T23:04:25.236Z,4.23
2019-05-03T23:06:55.677Z,3.73
2019-05-03T23:09:26.247Z,3.90
2019-05-03T23:11:55.834Z,3.97
2019-05-03T23:14:25.787Z,3.83
2019-05-03T23:16:55.353Z,3.53
2019-05-03T23:19:24.850Z,3.17
2019-05-03T23:22:11.201Z,3.77
2019-05-03T23:24:40.623Z,4.37
2019-05-03T23:27:10.122Z,3.90
2019-05-03T23:29:39.569Z,4.00
2019-05-03T23:32:09.165Z,4.23
2019-05-03T23:34:38.728Z,4.27
2019-05-03T23:37:08.197Z,4.50
2019-05-03T23:39:37.938Z,4.10
2019-05-03T23:42:07.542Z,4.20
2019-05-03T23:44:37.070Z,3.60
2019-05-03T23:47:08.267Z,4.10
2019-05-03T23:49:37.868Z,4.03
2019-05-03T23:52:27.189Z,3.87
2019-05-03T23:55:02.385Z,3.50
2019-05-03T23:57:32.020Z,3.30
